West Sayville, NY (11796)

2:29 PM EDT on June 22, 2017 (GMT -0400)
KNYSAYVI4 | | Change Station
Active Advisory: Coastal Flood Statement Active Notice: Coastal Flood Statement

Elev 36 ft 40.75 °N, 73.10 °W | Updated 5 seconds ago

Partly Cloudy
Partly Cloudy
76.3 °F
Feels Like 78 °F
N
1.0
Wind Variable Wind from South
Gusts 9.0 mph

Today
High -- | Low -- °F
--% Chance of Precip.
Yesterday
High -- | Low -- °F
Precip. -- in
Pressure 29.99 in
Visibility 10.0 miles
Clouds Few 4500 ft
Few 15000 ft
Scattered Clouds 25000 ft
Heat Index 78 °F
Dew Point 66 °F
Humidity 70%
Rainfall 0.00 in
Snow Depth Not available.
5:21 AM 8:27 PM
Waning Crescent, 3% visible
METAR KISP 221756Z 20008G15KT 160V230 10SM FEW045 FEW150 SCT250 25/14 A2999 RMK AO2 SLP153 T02500139 10267 20222 51000
Pressure 29.99 in
Visibility 10.0 miles
Clouds Few 4500 ft
Few 15000 ft
Scattered Clouds 25000 ft
Heat Index 78 °F
Dew Point 66 °F
Humidity 70%
Rainfall 0.00 in
Snow Depth Not available.
5:21 AM 8:27 PM
Waning Crescent, 3% visible
METAR KISP 221756Z 20008G15KT 160V230 10SM FEW045 FEW150 SCT250 25/14 A2999 RMK AO2 SLP153 T02500139 10267 20222 51000

Get Your Daily Forecast Email!

Thanks for signing up!

Be on the lookout for a verification email in your inbox.

You'll start receiving severe weather alerts in your inbox..

×

10-Day Weather Forecast

Almanac

Astronomy

Jun. 22, 2017 Rise Set
Actual Time
Civil Twilight
Nautical Twilight
Astronomical Twilight
Moon
Length of Visible Light
Length of Day
Tomorrow will be .
, % of the Moon is Illuminated

Today's Extremes

State Highs State Lows

Community

WunderPhotos

Category 6

Welcome to Category 6. This is the collective home for Weather Underground's featured writeups by Dr. Jeff Masters (right), Bob Henson (left), Chris Burt, and other regular contributors.

Nearby

Air Quality

  Air Quality AQ Index Pollutant
Not available.

Snow Depth

Station Depth Elevation

Earthquake Activity

City Distance Mag. Time & Date
Minimum magnitude displayed is 2.5.

Coastal Water Temperatures

Place Temperature

Stations

Nearby Weather Stations

Station Location Temp. Windchill Dew Point Humidity Wind Precip. Elev Updated Type
                   

Watches & Warnings

Coastal Flood Statement
Issued: 3:49 AM EDT Jun. 22, 2017 – National Weather Service

* locations... along the South Shore bays of New York City and
western Long Island.

* Positive tidal departures... 1/2 to 1 1/2 ft.

* Timing... times of high tide between 7 PM and 10 PM.

* Impacts... brief and minor flooding of the most vulnerable
shoreline and Waterfront roads and properties.